Gillette, WY

11:24 PM MDT on August 31, 2015 (GMT -0600)
McCann Heights, central Gillette | | Change Station
CLOSE
Current Station
Personal Weather Station
Location: Gillette, WY
Elevation: 4590 ft
Nearby Weather Stations

Elev 4590 ft 44.28 °N, 105.50 °W | Updated 13 minutes ago

Clear
Clear
63.1 °F
Feels Like 63.1 °F
N
2.7
Wind Variable Wind from SSE

Today
High -- | Low -- °F
--% Chance of Precip.
Yesterday
High -- | Low -- °F
Precip. -- in
6:23 AM 7:40 PM
Waning Gibbous, 91% visible
Pressure 29.81 in
Visibility 10.0 miles
Clouds Clear
Dew Point 52 °F
Humidity 67%
Rainfall 0.00 in
Snow Depth Not available.
UV 0 out of 12
Pollen 8.80 out of 12
Air Quality Not available.
Flu Activity Not available.
METAR KGCC 010453Z AUTO 11007KT 10SM CLR 18/12 A2993 RMK AO2 SLP095 T01780117 $
Pressure 29.81 in
Visibility 10.0 miles
Clouds Clear
Dew Point 52 °F
Humidity 67%
Rainfall 0.00 in
Snow Depth Not available.
UV 0 out of 12
Pollen 8.80 out of 12
Air Quality Not available.
Flu Activity Not available.
METAR KGCC 010453Z AUTO 11007KT 10SM CLR 18/12 A2993 RMK AO2 SLP095 T01780117 $

10-Day Weather Forecast

×

Almanac

Astronomy

Aug. 31, 2015 Rise Set
Actual Time
Civil Twilight
Nautical Twilight
Astronomical Twilight
Moon
Length of Visible Light
Length of Day
Tomorrow will be .
, % of the Moon is Illuminated

Today's Extremes

State Highs State Lows

Community

WunderPhotos

Upload Photos

1,851,481 photos uploaded!

WunderBlogs® & News

Nearby

Air Quality

  Air Quality AQ Index Pollutant
Not available.

Snow Depth

Station Depth Elevation

Earthquake Activity

City Distance Mag. Time & Date
Minimum magnitude displayed is 2.5.

Coastal Water Temperatures

Place Temperature

Stations

Nearby Weather Stations

Station Location Temp. Windchill Dew Point Humidity Wind Precip. Elev Updated Type